sensor_id;sensor_type;location;lat;lon;timestamp;pressure;altitude;pressure_sealevel;temperature;humidity
48200;BME280;33990;44.602;10.976;2022-07-19T00:00:50;101456.81;;;26.91;45.79
48200;BME280;33990;44.602;10.976;2022-07-19T00:03:18;101455.81;;;26.92;45.96
48200;BME280;33990;44.602;10.976;2022-07-19T00:05:49;101454.78;;;26.93;45.94
48200;BME280;33990;44.602;10.976;2022-07-19T00:08:16;101462.78;;;26.95;46.06
48200;BME280;33990;44.602;10.976;2022-07-19T00:10:44;101456.31;;;26.96;46.05
48200;BME280;33990;44.602;10.976;2022-07-19T00:13:11;101454.44;;;26.96;45.82
48200;BME280;33990;44.602;10.976;2022-07-19T00:15:38;101455.28;;;26.97;45.99
48200;BME280;33990;44.602;10.976;2022-07-19T00:18:06;101452.56;;;26.97;46.16
48200;BME280;33990;44.602;10.976;2022-07-19T00:20:34;101461.44;;;26.99;46.25
48200;BME280;33990;44.602;10.976;2022-07-19T00:23:01;101460.59;;;26.98;46.22
48200;BME280;33990;44.602;10.976;2022-07-19T00:25:29;101454.13;;;26.99;46.17
48200;BME280;33990;44.602;10.976;2022-07-19T00:27:56;101459.38;;;27.01;46.14
48200;BME280;33990;44.602;10.976;2022-07-19T00:30:23;101458.34;;;27.02;46.29
48200;BME280;33990;44.602;10.976;2022-07-19T00:32:51;101455.63;;;27.02;46.18
48200;BME280;33990;44.602;10.976;2022-07-19T00:35:18;101453.78;;;27.02;46.20
48200;BME280;33990;44.602;10.976;2022-07-19T00:37:46;101449.22;;;27.03;46.19
48200;BME280;33990;44.602;10.976;2022-07-19T00:40:21;101445.47;;;27.04;46.00
48200;BME280;33990;44.602;10.976;2022-07-19T00:42:50;101446.31;;;27.04;46.34
48200;BME280;33990;44.602;10.976;2022-07-19T00:45:18;101447.16;;;27.05;46.19
48200;BME280;33990;44.602;10.976;2022-07-19T00:47:46;101455.16;;;27.06;46.33
48200;BME280;33990;44.602;10.976;2022-07-19T00:50:13;101448.84;;;27.06;46.13
48200;BME280;33990;44.602;10.976;2022-07-19T00:52:43;101446.81;;;27.08;46.23
48200;BME280;33990;44.602;10.976;2022-07-19T00:55:12;101454.97;;;27.08;46.23
48200;BME280;33990;44.602;10.976;2022-07-19T00:57:40;101457.50;;;27.09;46.39
48200;BME280;33990;44.602;10.976;2022-07-19T01:00:09;101453.09;;;27.08;46.62
48200;BME280;33990;44.602;10.976;2022-07-19T01:02:37;101452.97;;;27.10;46.39
48200;BME280;33990;44.602;10.976;2022-07-19T01:05:06;101442.78;;;27.12;46.61
48200;BME280;33990;44.602;10.976;2022-07-19T01:07:34;101446.53;;;27.11;46.55
48200;BME280;33990;44.602;10.976;2022-07-19T01:10:06;101452.81;;;27.11;46.36
48200;BME280;33990;44.602;10.976;2022-07-19T01:12:34;101444.66;;;27.11;46.78
48200;BME280;33990;44.602;10.976;2022-07-19T01:15:02;101438.19;;;27.13;46.75
48200;BME280;33990;44.602;10.976;2022-07-19T01:17:38;101439.03;;;27.13;46.55
48200;BME280;33990;44.602;10.976;2022-07-19T01:20:06;101442.59;;;27.14;46.53
48200;BME280;33990;44.602;10.976;2022-07-19T01:22:34;101443.44;;;27.14;46.39
48200;BME280;33990;44.602;10.976;2022-07-19T01:25:04;101445.16;;;27.15;46.56
48200;BME280;33990;44.602;10.976;2022-07-19T01:27:44;101445.16;;;27.15;46.42
48200;BME280;33990;44.602;10.976;2022-07-19T01:30:13;101438.72;;;27.16;46.54
48200;BME280;33990;44.602;10.976;2022-07-19T01:32:40;101443.31;;;27.16;46.88
48200;BME280;33990;44.602;10.976;2022-07-19T01:35:08;101449.59;;;27.16;46.70
48200;BME280;33990;44.602;10.976;2022-07-19T01:37:37;101445.84;;;27.17;46.83
48200;BME280;33990;44.602;10.976;2022-07-19T01:40:07;101436.66;;;27.18;46.55
48200;BME280;33990;44.602;10.976;2022-07-19T01:42:35;101441.09;;;27.19;46.87
48200;BME280;33990;44.602;10.976;2022-07-19T01:45:04;101434.81;;;27.19;46.71
48200;BME280;33990;44.602;10.976;2022-07-19T01:47:32;101436.50;;;27.20;46.72
48200;BME280;33990;44.602;10.976;2022-07-19T01:49:59;101436.31;;;27.21;46.93
48200;BME280;33990;44.602;10.976;2022-07-19T01:52:27;101433.59;;;27.21;46.90
48200;BME280;33990;44.602;10.976;2022-07-19T01:54:54;101438.19;;;27.21;46.85
48200;BME280;33990;44.602;10.976;2022-07-19T01:57:21;101435.28;;;27.22;47.02
48200;BME280;33990;44.602;10.976;2022-07-19T01:59:49;101431.72;;;27.22;47.25
48200;BME280;33990;44.602;10.976;2022-07-19T02:02:19;101429.84;;;27.22;46.87
48200;BME280;33990;44.602;10.976;2022-07-19T02:04:46;101429.72;;;27.24;47.34
48200;BME280;33990;44.602;10.976;2022-07-19T02:07:14;101431.41;;;27.25;47.12
48200;BME280;33990;44.602;10.976;2022-07-19T02:09:41;101429.53;;;27.25;47.13
48200;BME280;33990;44.602;10.976;2022-07-19T02:12:08;101432.25;;;27.25;47.29
48200;BME280;33990;44.602;10.976;2022-07-19T02:14:36;101436.66;;;27.26;47.28
48200;BME280;33990;44.602;10.976;2022-07-19T02:17:03;101427.66;;;27.26;47.30
48200;BME280;33990;44.602;10.976;2022-07-19T02:19:31;101432.09;;;27.27;47.20
48200;BME280;33990;44.602;10.976;2022-07-19T02:21:58;101437.34;;;27.28;47.41
48200;BME280;33990;44.602;10.976;2022-07-19T02:24:25;101434.81;;;27.27;47.43
48200;BME280;33990;44.602;10.976;2022-07-19T02:26:53;101435.66;;;27.27;47.25
48200;BME280;33990;44.602;10.976;2022-07-19T02:29:20;101441.94;;;27.28;47.33
48200;BME280;33990;44.602;10.976;2022-07-19T02:31:47;101443.63;;;27.29;47.19
48200;BME280;33990;44.602;10.976;2022-07-19T02:34:15;101442.59;;;27.30;47.24
48200;BME280;33990;44.602;10.976;2022-07-19T02:36:42;101448.03;;;27.30;47.53
48200;BME280;33990;44.602;10.976;2022-07-19T02:39:10;101445.31;;;27.30;47.24
48200;BME280;33990;44.602;10.976;2022-07-19T02:41:38;101445.31;;;27.30;47.23
48200;BME280;33990;44.602;10.976;2022-07-19T02:44:05;101454.19;;;27.32;47.49
48200;BME280;33990;44.602;10.976;2022-07-19T02:46:32;101444.34;;;27.31;47.39
48200;BME280;33990;44.602;10.976;2022-07-19T02:49:00;101448.75;;;27.32;47.34
48200;BME280;33990;44.602;10.976;2022-07-19T02:51:27;101442.47;;;27.31;47.42
48200;BME280;33990;44.602;10.976;2022-07-19T02:53:54;101439.75;;;27.31;47.30
48200;BME280;33990;44.602;10.976;2022-07-19T02:56:22;101444.16;;;27.32;47.63
48200;BME280;33990;44.602;10.976;2022-07-19T02:58:49;101449.59;;;27.32;47.34
48200;BME280;33990;44.602;10.976;2022-07-19T03:01:16;101454.00;;;27.33;47.67
48200;BME280;33990;44.602;10.976;2022-07-19T03:03:44;101453.16;;;27.33;47.25
48200;BME280;33990;44.602;10.976;2022-07-19T03:06:13;101457.56;;;27.34;47.60
48200;BME280;33990;44.602;10.976;2022-07-19T03:08:41;101463.00;;;27.34;47.33
48200;BME280;33990;44.602;10.976;2022-07-19T03:11:08;101460.28;;;27.34;47.59
48200;BME280;33990;44.602;10.976;2022-07-19T03:13:35;101454.84;;;27.34;47.49
48200;BME280;33990;44.602;10.976;2022-07-19T03:16:03;101460.28;;;27.34;47.45
48200;BME280;33990;44.602;10.976;2022-07-19T03:18:31;101460.28;;;27.34;47.75
48200;BME280;33990;44.602;10.976;2022-07-19T03:20:59;101467.44;;;27.35;47.69
48200;BME280;33990;44.602;10.976;2022-07-19T03:23:31;101469.28;;;27.34;47.60
48200;BME280;33990;44.602;10.976;2022-07-19T03:26:00;101473.72;;;27.35;47.49
48200;BME280;33990;44.602;10.976;2022-07-19T03:28:27;101471.16;;;27.34;47.59
48200;BME280;33990;44.602;10.976;2022-07-19T03:30:55;101466.75;;;27.33;47.26
48200;BME280;33990;44.602;10.976;2022-07-19T03:33:22;101473.22;;;27.32;47.05
48200;BME280;33990;44.602;10.976;2022-07-19T03:35:49;101474.25;;;27.31;47.25
48200;BME280;33990;44.602;10.976;2022-07-19T03:38:17;101478.78;;;27.30;47.27
48200;BME280;33990;44.602;10.976;2022-07-19T03:40:45;101469.97;;;27.28;47.08
48200;BME280;33990;44.602;10.976;2022-07-19T03:43:15;101473.53;;;27.29;46.90
48200;BME280;33990;44.602;10.976;2022-07-19T03:45:44;101478.13;;;27.28;47.26
48200;BME280;33990;44.602;10.976;2022-07-19T03:48:12;101482.72;;;27.28;46.98
48200;BME280;33990;44.602;10.976;2022-07-19T03:50:40;101479.16;;;27.27;47.41
48200;BME280;33990;44.602;10.976;2022-07-19T03:53:08;101490.88;;;27.28;47.07
48200;BME280;33990;44.602;10.976;2022-07-19T03:55:35;101490.19;;;27.26;47.44
48200;BME280;33990;44.602;10.976;2022-07-19T03:58:03;101494.63;;;27.27;47.42
48200;BME280;33990;44.602;10.976;2022-07-19T04:00:31;101499.19;;;27.26;47.01
48200;BME280;33990;44.602;10.976;2022-07-19T04:02:58;101496.66;;;27.25;47.38
48200;BME280;33990;44.602;10.976;2022-07-19T04:05:26;101495.97;;;27.23;47.42
48200;BME280;33990;44.602;10.976;2022-07-19T04:07:53;101500.53;;;27.22;47.25
48200;BME280;33990;44.602;10.976;2022-07-19T04:10:21;101507.84;;;27.22;47.46
48200;BME280;33990;44.602;10.976;2022-07-19T04:12:49;101509.72;;;27.21;47.38
48200;BME280;33990;44.602;10.976;2022-07-19T04:15:16;101507.00;;;27.21;47.18
48200;BME280;33990;44.602;10.976;2022-07-19T04:17:44;101502.59;;;27.20;47.41
48200;BME280;33990;44.602;10.976;2022-07-19T04:20:12;101509.06;;;27.19;47.40
48200;BME280;33990;44.602;10.976;2022-07-19T04:22:39;101509.91;;;27.20;47.30
48200;BME280;33990;44.602;10.976;2022-07-19T04:25:07;101507.19;;;27.20;47.69
48200;BME280;33990;44.602;10.976;2022-07-19T04:27:35;101517.03;;;27.21;47.66
48200;BME280;33990;44.602;10.976;2022-07-19T04:30:03;101515.34;;;27.20;47.76
48200;BME280;33990;44.602;10.976;2022-07-19T04:32:31;101517.88;;;27.21;47.54
48200;BME280;33990;44.602;10.976;2022-07-19T04:35:00;101513.28;;;27.22;47.72
48200;BME280;33990;44.602;10.976;2022-07-19T04:37:27;101515.00;;;27.23;48.16
48200;BME280;33990;44.602;10.976;2022-07-19T04:39:55;101509.56;;;27.23;48.10
48200;BME280;33990;44.602;10.976;2022-07-19T04:42:22;101521.13;;;27.25;48.28
48200;BME280;33990;44.602;10.976;2022-07-19T04:44:49;101523.16;;;27.23;48.03
48200;BME280;33990;44.602;10.976;2022-07-19T04:47:17;101525.00;;;27.22;48.28
48200;BME280;33990;44.602;10.976;2022-07-19T04:49:44;101524.00;;;27.23;48.23
48200;BME280;33990;44.602;10.976;2022-07-19T04:52:11;101533.00;;;27.24;48.41
48200;BME280;33990;44.602;10.976;2022-07-19T04:54:39;101523.16;;;27.23;48.60
48200;BME280;33990;44.602;10.976;2022-07-19T04:57:06;101528.59;;;27.23;48.97
48200;BME280;33990;44.602;10.976;2022-07-19T04:59:33;101519.56;;;27.22;49.06
48200;BME280;33990;44.602;10.976;2022-07-19T05:02:01;101525.00;;;27.22;49.07
48200;BME280;33990;44.602;10.976;2022-07-19T05:04:28;101527.56;;;27.24;49.32
48200;BME280;33990;44.602;10.976;2022-07-19T05:06:56;101525.69;;;27.24;49.10
48200;BME280;33990;44.602;10.976;2022-07-19T05:09:27;101533.84;;;27.24;49.05
48200;BME280;33990;44.602;10.976;2022-07-19T05:11:55;101530.28;;;27.24;49.07
48200;BME280;33990;44.602;10.976;2022-07-19T05:14:23;101520.44;;;27.23;49.10
48200;BME280;33990;44.602;10.976;2022-07-19T05:16:50;101525.88;;;27.23;48.88
48200;BME280;33990;44.602;10.976;2022-07-19T05:19:18;101533.00;;;27.24;49.40
48200;BME280;33990;44.602;10.976;2022-07-19T05:21:45;101531.13;;;27.24;49.27
48200;BME280;33990;44.602;10.976;2022-07-19T05:24:13;101524.69;;;27.25;49.02
48200;BME280;33990;44.602;10.976;2022-07-19T05:26:40;101525.53;;;27.26;49.44
48200;BME280;33990;44.602;10.976;2022-07-19T05:29:08;101530.97;;;27.26;48.76
48200;BME280;33990;44.602;10.976;2022-07-19T05:31:35;101538.97;;;27.27;48.97
48200;BME280;33990;44.602;10.976;2022-07-19T05:34:03;101525.38;;;27.27;48.74
48200;BME280;33990;44.602;10.976;2022-07-19T05:36:31;101537.09;;;27.28;48.85
48200;BME280;33990;44.602;10.976;2022-07-19T05:38:58;101529.78;;;27.28;48.66
48200;BME280;33990;44.602;10.976;2022-07-19T05:41:25;101530.63;;;27.29;48.59
48200;BME280;33990;44.602;10.976;2022-07-19T05:43:53;101530.63;;;27.29;48.42
48200;BME280;33990;44.602;10.976;2022-07-19T05:46:21;101530.63;;;27.29;48.41
48200;BME280;33990;44.602;10.976;2022-07-19T05:48:48;101536.91;;;27.29;48.61
48200;BME280;33990;44.602;10.976;2022-07-19T05:51:16;101541.50;;;27.29;48.59
48200;BME280;33990;44.602;10.976;2022-07-19T05:53:43;101543.19;;;27.30;48.67
48200;BME280;33990;44.602;10.976;2022-07-19T05:56:10;101543.19;;;27.30;48.41
48200;BME280;33990;44.602;10.976;2022-07-19T05:58:38;101543.19;;;27.30;48.32
48200;BME280;33990;44.602;10.976;2022-07-19T06:01:05;101544.03;;;27.30;48.41
48200;BME280;33990;44.602;10.976;2022-07-19T06:03:56;101546.94;;;27.29;48.47
48200;BME280;33990;44.602;10.976;2022-07-19T06:06:27;101545.06;;;27.29;48.41
48200;BME280;33990;44.602;10.976;2022-07-19T06:08:56;101541.31;;;27.30;48.49
48200;BME280;33990;44.602;10.976;2022-07-19T06:11:24;101547.66;;;27.31;48.62
48200;BME280;33990;44.602;10.976;2022-07-19T06:13:52;101545.78;;;27.31;48.34
48200;BME280;33990;44.602;10.976;2022-07-19T06:16:20;101550.19;;;27.32;48.52
48200;BME280;33990;44.602;10.976;2022-07-19T06:18:47;101542.88;;;27.33;48.62
48200;BME280;33990;44.602;10.976;2022-07-19T06:21:17;101542.69;;;27.34;48.67
48200;BME280;33990;44.602;10.976;2022-07-19T06:23:46;101549.00;;;27.35;48.51
48200;BME280;33990;44.602;10.976;2022-07-19T06:26:13;101544.41;;;27.35;49.01
48200;BME280;33990;44.602;10.976;2022-07-19T06:28:41;101546.28;;;27.35;48.76
48200;BME280;33990;44.602;10.976;2022-07-19T06:31:10;101548.13;;;27.34;48.56
48200;BME280;33990;44.602;10.976;2022-07-19T06:33:42;101543.91;;;27.32;48.49
48200;BME280;33990;44.602;10.976;2022-07-19T06:36:11;101548.63;;;27.30;48.64
48200;BME280;33990;44.602;10.976;2022-07-19T06:38:42;101542.22;;;27.31;48.79
48200;BME280;33990;44.602;10.976;2022-07-19T06:41:11;101545.78;;;27.31;48.95
48200;BME280;33990;44.602;10.976;2022-07-19T06:43:39;101543.06;;;27.31;49.18
48200;BME280;33990;44.602;10.976;2022-07-19T06:46:07;101540.16;;;27.33;48.98
48200;BME280;33990;44.602;10.976;2022-07-19T06:48:35;101546.44;;;27.33;48.69
48200;BME280;33990;44.602;10.976;2022-07-19T06:51:03;101546.28;;;27.35;48.38
48200;BME280;33990;44.602;10.976;2022-07-19T06:53:32;101540.66;;;27.36;48.51
48200;BME280;33990;44.602;10.976;2022-07-19T06:55:59;101544.25;;;27.37;48.73
48200;BME280;33990;44.602;10.976;2022-07-19T06:58:27;101539.66;;;27.38;48.04
48200;BME280;33990;44.602;10.976;2022-07-19T07:00:56;101532.19;;;27.40;48.35
48200;BME280;33990;44.602;10.976;2022-07-19T07:03:24;101537.63;;;27.40;48.23
48200;BME280;33990;44.602;10.976;2022-07-19T07:05:52;101538.47;;;27.40;47.89
48200;BME280;33990;44.602;10.976;2022-07-19T07:08:19;101535.56;;;27.42;47.90
48200;BME280;33990;44.602;10.976;2022-07-19T07:10:46;101537.44;;;27.41;47.90
48200;BME280;33990;44.602;10.976;2022-07-19T07:13:14;101538.28;;;27.42;47.49
48200;BME280;33990;44.602;10.976;2022-07-19T07:15:41;101534.72;;;27.41;48.10
48200;BME280;33990;44.602;10.976;2022-07-19T07:18:11;101532.69;;;27.43;48.15
48200;BME280;33990;44.602;10.976;2022-07-19T07:20:38;101532.69;;;27.43;48.11
48200;BME280;33990;44.602;10.976;2022-07-19T07:23:05;101531.69;;;27.44;48.07
48200;BME280;33990;44.602;10.976;2022-07-19T07:25:33;101530.66;;;27.45;48.32
48200;BME280;33990;44.602;10.976;2022-07-19T07:28:00;101535.06;;;27.46;46.88
48200;BME280;33990;44.602;10.976;2022-07-19T07:30:27;101527.94;;;27.45;46.02
48200;BME280;33990;44.602;10.976;2022-07-19T07:32:55;101526.91;;;27.46;44.99
48200;BME280;33990;44.602;10.976;2022-07-19T07:35:22;101527.94;;;27.45;44.34
48200;BME280;33990;44.602;10.976;2022-07-19T07:37:50;101525.22;;;27.45;44.22
48200;BME280;33990;44.602;10.976;2022-07-19T07:40:19;101523.53;;;27.44;45.01
48200;BME280;33990;44.602;10.976;2022-07-19T07:42:46;101527.78;;;27.47;45.41
48200;BME280;33990;44.602;10.976;2022-07-19T07:45:14;101526.91;;;27.46;45.90
48200;BME280;33990;44.602;10.976;2022-07-19T07:47:41;101523.19;;;27.47;45.86
48200;BME280;33990;44.602;10.976;2022-07-19T07:50:11;101517.75;;;27.47;45.69
48200;BME280;33990;44.602;10.976;2022-07-19T07:52:38;101515.03;;;27.47;45.26
48200;BME280;33990;44.602;10.976;2022-07-19T07:55:15;101511.28;;;27.48;44.30
48200;BME280;33990;44.602;10.976;2022-07-19T07:57:55;101505.50;;;27.51;43.94
48200;BME280;33990;44.602;10.976;2022-07-19T08:00:22;101501.59;;;27.54;41.99
48200;BME280;33990;44.602;10.976;2022-07-19T08:02:50;101503.13;;;27.56;40.32
48200;BME280;33990;44.602;10.976;2022-07-19T08:05:20;101500.06;;;27.59;41.09
48200;BME280;33990;44.602;10.976;2022-07-19T08:07:49;101500.72;;;27.61;40.45
48200;BME280;33990;44.602;10.976;2022-07-19T08:10:21;101500.22;;;27.66;38.62
48200;BME280;33990;44.602;10.976;2022-07-19T08:12:50;101494.94;;;27.73;37.89
48200;BME280;33990;44.602;10.976;2022-07-19T08:15:18;101499.41;;;27.74;38.76
48200;BME280;33990;44.602;10.976;2022-07-19T08:17:45;101500.25;;;27.74;39.53
48200;BME280;33990;44.602;10.976;2022-07-19T08:20:13;101498.56;;;27.73;39.63
48200;BME280;33990;44.602;10.976;2022-07-19T08:22:41;101495.84;;;27.73;39.80
48200;BME280;33990;44.602;10.976;2022-07-19T08:25:09;101493.25;;;27.72;40.00
48200;BME280;33990;44.602;10.976;2022-07-19T08:27:43;101497.84;;;27.71;39.98
48200;BME280;33990;44.602;10.976;2022-07-19T08:30:11;101503.31;;;27.71;39.86
48200;BME280;33990;44.602;10.976;2022-07-19T08:32:40;101495.13;;;27.71;39.45
48200;BME280;33990;44.602;10.976;2022-07-19T08:35:09;101494.25;;;27.71;39.68
48200;BME280;33990;44.602;10.976;2022-07-19T08:37:38;101501.44;;;27.72;40.07
48200;BME280;33990;44.602;10.976;2022-07-19T08:40:06;101504.16;;;27.72;40.12
48200;BME280;33990;44.602;10.976;2022-07-19T08:42:34;101499.56;;;27.72;38.85
48200;BME280;33990;44.602;10.976;2022-07-19T08:45:08;101502.97;;;27.74;39.51
48200;BME280;33990;44.602;10.976;2022-07-19T08:47:37;101499.41;;;27.74;39.17
48200;BME280;33990;44.602;10.976;2022-07-19T08:50:07;101500.25;;;27.74;38.54
48200;BME280;33990;44.602;10.976;2022-07-19T08:52:35;101493.97;;;27.74;38.38
48200;BME280;33990;44.602;10.976;2022-07-19T08:55:04;101496.69;;;27.74;38.11
48200;BME280;33990;44.602;10.976;2022-07-19T08:57:32;101495.84;;;27.73;39.37
48200;BME280;33990;44.602;10.976;2022-07-19T09:00:18;101493.97;;;27.74;38.96
48200;BME280;33990;44.602;10.976;2022-07-19T09:03:00;101491.25;;;27.74;39.03
48200;BME280;33990;44.602;10.976;2022-07-19T09:05:29;101493.97;;;27.74;38.98
48200;BME280;33990;44.602;10.976;2022-07-19T09:08:11;101487.47;;;27.75;38.36
48200;BME280;33990;44.602;10.976;2022-07-19T09:10:42;101494.28;;;27.79;38.16
48200;BME280;33990;44.602;10.976;2022-07-19T09:13:12;101484.28;;;27.79;37.98
48200;BME280;33990;44.602;10.976;2022-07-19T09:15:40;101482.22;;;27.81;38.25
48200;BME280;33990;44.602;10.976;2022-07-19T09:20:39;101481.03;;;27.84;37.10
48200;BME280;33990;44.602;10.976;2022-07-19T09:23:07;101479.66;;;27.88;36.04
48200;BME280;33990;44.602;10.976;2022-07-19T09:25:40;101474.03;;;27.90;37.32
48200;BME280;33990;44.602;10.976;2022-07-19T09:28:08;101482.03;;;27.91;37.56
48200;BME280;33990;44.602;10.976;2022-07-19T09:30:40;101490.88;;;27.93;37.91
48200;BME280;33990;44.602;10.976;2022-07-19T09:35:54;101484.59;;;27.93;37.79
48200;BME280;33990;44.602;10.976;2022-07-19T09:40:55;101474.72;;;27.92;38.54
48200;BME280;33990;44.602;10.976;2022-07-19T09:43:58;101475.56;;;27.92;38.30
48200;BME280;33990;44.602;10.976;2022-07-19T09:46:40;101481.03;;;27.92;38.10
48200;BME280;33990;44.602;10.976;2022-07-19T09:49:13;101483.75;;;27.92;38.12
48200;BME280;33990;44.602;10.976;2022-07-19T09:51:43;101475.56;;;27.92;38.22
48200;BME280;33990;44.602;10.976;2022-07-19T09:54:15;101479.16;;;27.93;38.18
48200;BME280;33990;44.602;10.976;2022-07-19T09:56:44;101477.28;;;27.93;38.53
48200;BME280;33990;44.602;10.976;2022-07-19T09:59:13;101471.81;;;27.93;38.89
48200;BME280;33990;44.602;10.976;2022-07-19T10:01:40;101470.97;;;27.93;38.60
48200;BME280;33990;44.602;10.976;2022-07-19T10:04:12;101476.25;;;27.94;37.49
48200;BME280;33990;44.602;10.976;2022-07-19T10:06:42;101464.16;;;27.97;36.86
48200;BME280;33990;44.602;10.976;2022-07-19T10:09:11;101466.69;;;27.98;37.20
48200;BME280;33990;44.602;10.976;2022-07-19T10:11:39;101470.13;;;28.00;36.95
48200;BME280;33990;44.602;10.976;2022-07-19T10:14:08;101464.31;;;28.03;36.90
48200;BME280;33990;44.602;10.976;2022-07-19T10:19:18;101461.41;;;28.05;37.38
48200;BME280;33990;44.602;10.976;2022-07-19T10:21:48;101465.84;;;28.06;37.16
48200;BME280;33990;44.602;10.976;2022-07-19T10:27:08;101459.53;;;28.05;37.42
48200;BME280;33990;44.602;10.976;2022-07-19T10:29:35;101460.38;;;28.06;37.46
48200;BME280;33990;44.602;10.976;2022-07-19T10:32:06;101453.06;;;28.06;37.53
48200;BME280;33990;44.602;10.976;2022-07-19T10:34:33;101449.50;;;28.06;37.74
48200;BME280;33990;44.602;10.976;2022-07-19T10:37:01;101451.34;;;28.14;37.31
48200;BME280;33990;44.602;10.976;2022-07-19T10:39:37;101456.78;;;28.14;38.27
48200;BME280;33990;44.602;10.976;2022-07-19T10:42:21;101460.38;;;28.14;38.40
48200;BME280;33990;44.602;10.976;2022-07-19T10:52:38;101443.88;;;28.07;38.83
48200;BME280;33990;44.602;10.976;2022-07-19T11:00:45;101440.31;;;28.07;39.00
48200;BME280;33990;44.602;10.976;2022-07-19T11:06:00;101439.47;;;28.06;39.34
48200;BME280;33990;44.602;10.976;2022-07-19T11:08:35;101439.66;;;28.05;39.32
48200;BME280;33990;44.602;10.976;2022-07-19T11:11:08;101440.50;;;28.05;39.35
48200;BME280;33990;44.602;10.976;2022-07-19T11:13:37;101427.91;;;28.04;39.59
48200;BME280;33990;44.602;10.976;2022-07-19T11:16:05;101432.31;;;28.05;39.93
48200;BME280;33990;44.602;10.976;2022-07-19T11:18:34;101426.88;;;28.05;39.83
48200;BME280;33990;44.602;10.976;2022-07-19T11:21:03;101420.75;;;28.03;39.90
48200;BME280;33990;44.602;10.976;2022-07-19T11:23:36;101422.47;;;28.04;40.07
48200;BME280;33990;44.602;10.976;2022-07-19T11:28:39;101422.28;;;28.06;40.17
48200;BME280;33990;44.602;10.976;2022-07-19T11:31:21;101409.69;;;28.05;40.06
48200;BME280;33990;44.602;10.976;2022-07-19T11:33:51;101407.84;;;28.05;40.22
48200;BME280;33990;44.602;10.976;2022-07-19T11:36:56;101407.84;;;28.05;40.14
48200;BME280;33990;44.602;10.976;2022-07-19T11:39:24;101407.84;;;28.05;40.19
48200;BME280;33990;44.602;10.976;2022-07-19T11:41:51;101398.63;;;28.06;40.38
48200;BME280;33990;44.602;10.976;2022-07-19T11:44:31;101396.94;;;28.05;40.75
48200;BME280;33990;44.602;10.976;2022-07-19T11:47:09;101394.22;;;28.05;40.64
48200;BME280;33990;44.602;10.976;2022-07-19T11:49:39;101390.47;;;28.06;40.74
48200;BME280;33990;44.602;10.976;2022-07-19T11:52:10;101397.59;;;28.07;40.47
48200;BME280;33990;44.602;10.976;2022-07-19T11:54:37;101393.88;;;28.08;40.73
48200;BME280;33990;44.602;10.976;2022-07-19T11:57:25;101388.44;;;28.08;40.56
48200;BME280;33990;44.602;10.976;2022-07-19T11:59:54;101388.44;;;28.08;40.83
48200;BME280;33990;44.602;10.976;2022-07-19T12:02:23;101387.41;;;28.09;41.14
48200;BME280;33990;44.602;10.976;2022-07-19T12:04:51;101389.28;;;28.09;41.36
48200;BME280;33990;44.602;10.976;2022-07-19T12:07:19;101387.41;;;28.09;40.86
48200;BME280;33990;44.602;10.976;2022-07-19T12:09:46;101373.97;;;28.08;41.17
48200;BME280;33990;44.602;10.976;2022-07-19T12:12:15;101379.22;;;28.09;41.25
48200;BME280;33990;44.602;10.976;2022-07-19T12:14:43;101370.22;;;28.09;41.24
48200;BME280;33990;44.602;10.976;2022-07-19T12:19:44;101371.91;;;28.10;40.99
48200;BME280;33990;44.602;10.976;2022-07-19T12:22:37;101360.19;;;28.09;40.97
48200;BME280;33990;44.602;10.976;2022-07-19T12:25:07;101370.88;;;28.11;40.85
48200;BME280;33990;44.602;10.976;2022-07-19T12:27:36;101367.31;;;28.10;41.04
48200;BME280;33990;44.602;10.976;2022-07-19T12:30:05;101360.00;;;28.11;41.29
48200;BME280;33990;44.602;10.976;2022-07-19T12:32:38;101355.41;;;28.12;41.37
48200;BME280;33990;44.602;10.976;2022-07-19T12:35:14;101359.00;;;28.12;41.28
48200;BME280;33990;44.602;10.976;2022-07-19T12:37:43;101357.25;;;28.11;41.17
48200;BME280;33990;44.602;10.976;2022-07-19T12:40:12;101353.34;;;28.14;41.44
48200;BME280;33990;44.602;10.976;2022-07-19T12:42:41;101349.78;;;28.13;41.59
48200;BME280;33990;44.602;10.976;2022-07-19T12:45:17;101350.63;;;28.14;41.37
48200;BME280;33990;44.602;10.976;2022-07-19T12:47:46;101346.03;;;28.14;41.59
48200;BME280;33990;44.602;10.976;2022-07-19T12:50:35;101347.06;;;28.13;41.17
48200;BME280;33990;44.602;10.976;2022-07-19T12:53:07;101334.28;;;28.14;41.77
48200;BME280;33990;44.602;10.976;2022-07-19T12:55:37;101334.28;;;28.14;41.54
48200;BME280;33990;44.602;10.976;2022-07-19T12:58:06;101333.25;;;28.15;41.76
48200;BME280;33990;44.602;10.976;2022-07-19T13:00:36;101337.72;;;28.16;41.57
48200;BME280;33990;44.602;10.976;2022-07-19T13:03:05;101330.53;;;28.15;41.64
48200;BME280;33990;44.602;10.976;2022-07-19T13:05:33;101332.25;;;28.16;41.41
48200;BME280;33990;44.602;10.976;2022-07-19T13:08:01;101324.09;;;28.16;41.37
48200;BME280;33990;44.602;10.976;2022-07-19T13:10:29;101322.22;;;28.16;41.20
48200;BME280;33990;44.602;10.976;2022-07-19T13:12:57;101320.50;;;28.15;41.35
48200;BME280;33990;44.602;10.976;2022-07-19T13:15:25;101323.06;;;28.17;41.40
48200;BME280;33990;44.602;10.976;2022-07-19T13:17:54;101317.63;;;28.17;41.52
48200;BME280;33990;44.602;10.976;2022-07-19T13:20:28;101318.47;;;28.17;41.46
48200;BME280;33990;44.602;10.976;2022-07-19T13:22:55;101310.47;;;28.16;41.48
48200;BME280;33990;44.602;10.976;2022-07-19T13:25:23;101309.25;;;28.18;41.55